Time;durP1;ratioP1;P1;durP2;ratioP2;P2;SDS_P1;SDS_P2;PMS_P1;PMS_P2;Temp;Humidity;BMP_temperature;BMP_pressure;BME280_temperature;BME280_humidity;BME280_pressure;Samples;Min_cycle;Max_cycle;Signal;HPM_P1;HPM_P2
2022/10/08 00:00:45;;;;;;;6.57;3.88;;;;;;;18.67;61.05;102003.31;5041124;28;20030;-85
2022/10/08 00:03:14;;;;;;;6.55;3.97;;;;;;;18.76;60.89;102005.44;5042304;28;20013;-84
2022/10/08 00:05:40;;;;;;;7.78;4.22;;;;;;;18.56;60.76;101978.16;5054090;28;20033;-84
2022/10/08 00:08:06;;;;;;;5.60;4.00;;;;;;;18.72;61.16;102006.16;5047379;28;20059;-85
2022/10/08 00:10:32;;;;;;;7.15;4.00;;;;;;;18.67;60.98;101994.50;5053985;28;20483;-84
2022/10/08 00:12:59;;;;;;;16.00;4.25;;;;;;;18.72;61.02;101993.81;5051821;28;20025;-84
2022/10/08 00:15:25;;;;;;;8.18;3.92;;;;;;;18.70;61.34;102002.53;5050747;28;20456;-83
2022/10/08 00:17:51;;;;;;;7.95;3.55;;;;;;;18.65;61.11;101986.47;5052274;28;20186;-84
2022/10/08 00:20:17;;;;;;;7.93;3.90;;;;;;;18.67;61.36;101992.75;5051234;28;20443;-84
2022/10/08 00:22:42;;;;;;;6.85;4.20;;;;;;;18.69;61.17;101985.78;5052026;28;20021;-84
2022/10/08 00:25:09;;;;;;;6.15;4.00;;;;;;;18.72;61.24;101988.53;5038132;28;20112;-83
2022/10/08 00:27:34;;;;;;;;;;;;;;;18.76;61.23;101978.09;5053224;28;20032;-84
2022/10/08 00:30:00;;;;;;;7.60;4.10;;;;;;;18.70;61.37;101971.69;5049770;28;19908;-82
2022/10/08 00:32:25;;;;;;;9.35;4.43;;;;;;;18.76;61.20;101976.31;5057893;28;20089;-83
2022/10/08 00:34:51;;;;;;;8.57;4.53;;;;;;;18.70;61.45;101976.09;5036197;28;20120;-84
2022/10/08 00:37:16;;;;;;;10.88;4.30;;;;;;;18.75;61.13;101969.22;5039153;28;20560;-84
2022/10/08 00:39:43;;;;;;;8.77;4.18;;;;;;;18.70;61.45;101966.38;5040541;28;20063;-85
2022/10/08 00:42:10;;;;;;;7.80;4.38;;;;;;;18.20;61.53;101882.34;5041413;28;20097;-85
2022/10/08 00:44:50;;;;;;;7.95;4.03;;;;;;;18.69;61.53;101961.94;5052082;28;20091;-84
2022/10/08 00:47:24;;;;;;;6.75;4.00;;;;;;;18.49;61.64;101941.72;5049114;28;20094;-84
2022/10/08 00:49:53;;;;;;;8.88;3.90;;;;;;;18.48;61.59;101939.94;5051486;28;20048;-84
2022/10/08 00:52:20;;;;;;;6.63;4.03;;;;;;;18.67;61.61;101957.44;5051699;28;20025;-84
2022/10/08 00:54:48;;;;;;;9.18;4.13;;;;;;;18.39;61.79;101923.66;5051044;28;20534;-84
2022/10/08 00:57:15;;;;;;;8.57;4.10;;;;;;;18.65;61.90;101967.06;5051835;28;20029;-84
2022/10/08 00:59:40;;;;;;;;;;;;;;;18.64;61.61;101966.13;5051860;28;20032;-84
2022/10/08 01:02:07;;;;;;;5.63;3.85;;;;;;;18.51;61.73;101948.88;5052394;28;19916;-84
2022/10/08 01:04:34;;;;;;;8.27;4.18;;;;;;;18.63;61.50;101961.69;5050318;28;20032;-83
2022/10/08 01:07:09;;;;;;;7.57;4.25;;;;;;;18.57;61.88;101964.09;5044115;28;20466;-84
2022/10/08 01:09:39;;;;;;;6.88;3.97;;;;;;;18.37;61.68;101936.84;5051063;28;20029;-84
2022/10/08 01:12:14;;;;;;;8.07;4.35;;;;;;;18.58;61.53;101946.47;5052178;28;20017;-83
2022/10/08 01:15:16;;;;;;;5.85;3.63;;;;;;;18.36;61.91;101940.31;5049180;28;20032;-83
2022/10/08 01:17:59;;;;;;;5.05;3.83;;;;;;;18.61;61.68;101955.44;5042209;28;20029;-83
2022/10/08 01:20:39;;;;;;;8.60;4.20;;;;;;;18.53;61.78;101954.22;5051887;28;20112;-84
2022/10/08 01:23:20;;;;;;;7.43;3.90;;;;;;;18.49;62.01;101944.38;5050866;28;20032;-83
2022/10/08 01:25:48;;;;;;;6.18;4.03;;;;;;;18.52;61.79;101948.06;5053630;28;20044;-84
2022/10/08 01:28:32;;;;;;;5.38;3.47;;;;;;;18.54;62.02;101947.19;5057118;28;20104;-84
2022/10/08 01:31:07;;;;;;;7.63;4.53;;;;;;;18.57;61.54;101929.72;5039356;28;20036;-84
2022/10/08 01:33:41;;;;;;;9.30;4.13;;;;;;;18.60;61.57;101931.56;5042883;28;20105;-83
2022/10/08 01:36:09;;;;;;;9.52;4.70;;;;;;;18.66;61.83;101942.41;5041175;28;20049;-84
2022/10/08 01:38:41;;;;;;;9.00;4.68;;;;;;;18.63;62.08;101927.31;5037811;28;20014;-83
2022/10/08 01:41:08;;;;;;;9.90;4.28;;;;;;;18.40;62.12;101899.94;5038047;28;20056;-83
2022/10/08 01:43:37;;;;;;;9.63;4.47;;;;;;;18.47;62.47;101899.31;5044443;28;20027;-84
2022/10/08 01:46:18;;;;;;;7.10;3.95;;;;;;;18.60;61.94;101913.03;5036159;28;20029;-84
2022/10/08 01:48:46;;;;;;;10.13;4.60;;;;;;;18.67;62.19;101918.66;5038631;28;20025;-84
2022/10/08 01:51:16;;;;;;;8.73;4.13;;;;;;;18.62;62.09;101916.66;5050495;28;20063;-84
2022/10/08 01:53:44;;;;;;;9.02;5.25;;;;;;;18.68;62.30;101911.59;5049583;28;20025;-84
2022/10/08 01:56:13;;;;;;;11.00;5.05;;;;;;;18.65;62.34;101903.56;5049876;28;20029;-84
2022/10/08 01:58:48;;;;;;;11.05;4.80;;;;;;;18.63;63.02;101914.09;5049286;28;20025;-84
2022/10/08 02:01:28;;;;;;;11.77;5.03;;;;;;;18.54;62.93;101905.75;5045232;28;20113;-84
2022/10/08 02:06:41;;;;;;;12.95;5.03;;;;;;;18.67;62.52;101912.47;5051347;28;20104;-84
2022/10/08 02:09:08;;;;;;;11.75;5.43;;;;;;;18.69;62.75;101906.38;5047899;28;20035;-84
2022/10/08 02:11:34;;;;;;;7.70;4.78;;;;;;;18.68;62.89;101911.59;5063758;28;20119;-84
2022/10/08 02:14:00;;;;;;;13.18;5.60;;;;;;;18.56;62.85;101880.25;5050008;28;20534;-83
2022/10/08 02:16:28;;;;;;;9.75;5.30;;;;;;;18.57;63.11;101886.50;5051053;28;20029;-83
2022/10/08 02:19:10;;;;;;;9.85;4.90;;;;;;;18.59;62.82;101891.00;5056183;28;20031;-83
2022/10/08 02:21:37;;;;;;;7.68;4.80;;;;;;;18.60;63.02;101903.34;5052533;28;20009;-84
2022/10/08 02:24:17;;;;;;;7.68;4.88;;;;;;;18.53;62.78;101890.75;5049874;28;20029;-84
2022/10/08 02:26:53;;;;;;;7.63;4.95;;;;;;;18.59;62.55;101892.75;5049668;28;20631;-83
2022/10/08 02:29:45;;;;;;;9.45;5.07;;;;;;;18.61;63.00;101893.69;5056449;28;20032;-84
2022/10/08 02:32:10;;;;;;;10.75;5.50;;;;;;;18.62;63.38;101888.44;5036262;28;20065;-84
2022/10/08 02:34:55;;;;;;;11.00;5.55;;;;;;;18.65;63.04;101900.91;5035181;28;20032;-84
2022/10/08 02:37:24;;;;;;;9.57;5.35;;;;;;;18.62;62.91;101890.19;5036368;28;20054;-84
2022/10/08 02:39:58;;;;;;;9.35;5.25;;;;;;;18.57;63.09;101876.78;5057980;28;20029;-84
2022/10/08 02:42:25;;;;;;;11.18;5.80;;;;;;;18.35;63.30;101840.69;5040789;28;20021;-84
2022/10/08 02:45:02;;;;;;;12.70;5.93;;;;;;;18.35;63.03;101850.34;5035194;28;20051;-83
2022/10/08 02:47:31;;;;;;;10.95;5.75;;;;;;;18.65;63.09;101907.09;5034337;28;20021;-84
2022/10/08 02:50:01;;;;;;;11.93;5.55;;;;;;;18.64;63.23;101897.34;5025156;28;20029;-84
2022/10/08 02:52:29;;;;;;;9.85;5.75;;;;;;;18.38;63.03;101850.47;5044796;28;20599;-84
2022/10/08 02:54:59;;;;;;;9.32;5.32;;;;;;;18.52;63.14;101873.09;5042199;28;20021;-82
2022/10/08 02:57:37;;;;;;;7.75;5.20;;;;;;;18.62;62.63;101879.63;5043544;28;20040;-83
2022/10/08 03:00:04;;;;;;;7.55;5.32;;;;;;;18.56;63.10;101866.16;5056519;28;20035;-83
2022/10/08 03:02:43;;;;;;;10.48;5.57;;;;;;;18.61;63.06;101875.19;5056811;28;20029;-84
2022/10/08 03:05:17;;;;;;;10.90;5.72;;;;;;;18.24;62.97;101821.72;5050623;28;20045;-84
2022/10/08 03:07:43;;;;;;;11.15;5.75;;;;;;;18.66;63.05;101885.09;5047746;28;20033;-83
2022/10/08 03:10:08;;;;;;;;;;;;;;;18.61;63.24;101877.81;5038136;28;20016;-84
2022/10/08 03:12:34;;;;;;;10.05;5.60;;;;;;;18.53;63.39;101872.22;5031786;28;20015;-84
2022/10/08 03:15:00;;;;;;;9.73;5.72;;;;;;;18.60;63.70;101882.19;5030495;28;20052;-85
2022/10/08 03:17:37;;;;;;;11.20;6.28;;;;;;;18.57;63.48;101876.78;5057113;28;20111;-84
2022/10/08 03:20:05;;;;;;;11.52;6.10;;;;;;;18.33;63.61;101836.16;5036344;28;20032;-83
2022/10/08 03:22:31;;;;;;;12.77;6.63;;;;;;;18.48;63.57;101857.94;5053501;28;20045;-84
2022/10/08 03:24:57;;;;;;;13.48;5.97;;;;;;;18.60;63.50;101878.66;5053201;28;22108;-84
2022/10/08 03:27:22;;;;;;;10.35;6.18;;;;;;;18.52;63.69;101873.09;5052847;28;20042;-83
2022/10/08 03:29:48;;;;;;;7.45;6.00;;;;;;;18.34;63.66;101843.25;5053751;28;20036;-84
2022/10/08 03:32:13;;;;;;;8.73;5.57;;;;;;;18.31;63.33;101828.19;5046775;28;20029;-84
2022/10/08 03:34:39;;;;;;;13.02;5.75;;;;;;;18.60;63.06;101879.53;5034076;28;20029;-84
2022/10/08 03:37:05;;;;;;;10.55;6.30;;;;;;;18.45;63.45;101852.50;5038238;28;20050;-84
2022/10/08 03:39:30;;;;;;;11.57;6.07;;;;;;;18.39;63.59;101855.78;5042190;28;20572;-85
2022/10/08 03:41:56;;;;;;;9.52;6.55;;;;;;;18.42;63.70;101863.88;5041920;28;20036;-85
2022/10/08 03:44:21;;;;;;;10.15;6.15;;;;;;;18.55;63.76;101874.94;5044919;28;20036;-84
2022/10/08 03:46:48;;;;;;;10.80;5.85;;;;;;;18.51;63.50;101873.91;5050264;28;20021;-85
2022/10/08 03:49:13;;;;;;;;;;;;;;;18.55;63.44;101886.41;5037076;28;20026;-83
2022/10/08 03:51:39;;;;;;;9.82;5.70;;;;;;;18.34;63.31;101849.44;5054143;28;19913;-85
2022/10/08 03:54:05;;;;;;;7.97;5.38;;;;;;;18.38;62.71;101851.38;5051394;28;20033;-84
2022/10/08 03:56:31;;;;;;;8.93;5.65;;;;;;;18.21;63.06;101834.84;5021627;28;20537;-85
2022/10/08 03:58:58;;;;;;;8.98;5.65;;;;;;;18.49;63.37;101894.09;5054005;28;20036;-85
2022/10/08 04:01:25;;;;;;;9.05;5.82;;;;;;;18.50;63.27;101895.94;5049864;28;20037;-83
2022/10/08 04:03:51;;;;;;;11.65;5.85;;;;;;;18.48;63.29;101893.22;5049803;28;20102;-83
2022/10/08 04:06:17;;;;;;;8.38;5.80;;;;;;;18.18;63.23;101829.44;5034568;28;20473;-84
2022/10/08 04:08:43;;;;;;;10.25;6.05;;;;;;;18.57;62.82;101881.19;5018750;28;20033;-84
2022/10/08 04:11:11;;;;;;;8.70;5.78;;;;;;;18.56;63.03;101887.31;5046300;28;20587;-84
2022/10/08 04:13:37;;;;;;;10.15;5.65;;;;;;;18.42;62.92;101861.22;5041196;28;20029;-84
2022/10/08 04:16:13;;;;;;;10.32;6.20;;;;;;;18.50;63.38;101865.09;5038797;28;20095;-85
2022/10/08 04:18:39;;;;;;;11.10;6.28;;;;;;;18.40;63.46;101877.88;5032168;28;20029;-85
2022/10/08 04:21:07;;;;;;;11.70;6.40;;;;;;;18.58;63.36;101888.28;5038238;28;20021;-85
2022/10/08 04:23:35;;;;;;;10.48;6.38;;;;;;;18.58;63.57;101883.88;5036222;28;20025;-84
2022/10/08 04:26:01;;;;;;;15.68;6.38;;;;;;;18.62;63.60;101887.56;5031588;28;20143;-83
2022/10/08 04:28:27;;;;;;;9.38;5.93;;;;;;;18.39;63.71;101845.22;5037590;28;20523;-84
2022/10/08 04:30:56;;;;;;;;;;;;;;;18.60;63.55;101881.31;5031325;28;20040;-85
2022/10/08 04:33:22;;;;;;;10.27;5.90;;;;;;;18.57;63.11;101874.16;5051389;28;19917;-84
2022/10/08 04:35:47;;;;;;;12.25;6.72;;;;;;;18.41;63.38;101845.28;5030892;28;20107;-85
2022/10/08 04:38:13;;;;;;;10.40;5.90;;;;;;;18.07;63.64;101794.63;5045912;28;20036;-84
2022/10/08 04:40:39;;;;;;;11.80;6.60;;;;;;;18.49;63.34;101855.31;5038866;28;20100;-85
2022/10/08 04:43:04;;;;;;;10.35;5.90;;;;;;;18.03;63.58;101790.06;5036001;28;20403;-85
2022/10/08 04:45:30;;;;;;;12.25;6.43;;;;;;;18.63;63.70;101866.47;5048714;28;20032;-85
2022/10/08 04:47:55;;;;;;;9.52;6.25;;;;;;;18.54;63.73;101868.72;5054103;28;20075;-85
2022/10/08 04:50:21;;;;;;;10.32;6.13;;;;;;;18.47;63.29;101842.88;5044324;28;20032;-85
2022/10/08 04:52:47;;;;;;;12.10;6.25;;;;;;;18.55;63.73;101867.00;5053080;28;20032;-85
2022/10/08 04:55:12;;;;;;;11.38;6.65;;;;;;;18.60;63.56;101876.00;5038482;28;20605;-85
2022/10/08 04:57:38;;;;;;;10.82;6.78;;;;;;;18.58;63.60;101877.69;5045633;28;20029;-85
2022/10/08 05:00:05;;;;;;;12.40;7.03;;;;;;;18.27;64.32;101837.72;5033824;28;20112;-82
2022/10/08 05:02:31;;;;;;;12.13;6.82;;;;;;;18.48;64.00;101874.69;5036490;28;20022;-84
2022/10/08 05:04:56;;;;;;;14.75;7.13;;;;;;;18.46;63.99;101883.41;5047441;28;20078;-85
2022/10/08 05:07:23;;;;;;;11.60;6.50;;;;;;;18.54;63.80;101891.63;5040132;28;20046;-84
2022/10/08 05:09:49;;;;;;;11.02;6.30;;;;;;;18.52;63.58;101900.44;5043374;28;20108;-86
2022/10/08 05:12:15;;;;;;;15.20;7.32;;;;;;;18.21;63.81;101839.22;5030885;28;20037;-85
2022/10/08 05:14:40;;;;;;;9.57;6.15;;;;;;;18.44;63.69;101877.16;5031001;28;20021;-85
2022/10/08 05:17:06;;;;;;;9.10;6.45;;;;;;;18.15;63.47;101820.47;5036126;28;20497;-85
2022/10/08 05:19:32;;;;;;;13.85;6.38;;;;;;;18.44;63.63;101880.72;5030930;28;20029;-84
2022/10/08 05:21:57;;;;;;;11.32;7.03;;;;;;;18.56;63.88;101905.81;5034752;28;20064;-85
2022/10/08 05:24:23;;;;;;;8.30;6.40;;;;;;;18.57;63.55;101902.34;5025995;28;20021;-86
2022/10/08 05:26:51;;;;;;;11.63;7.20;;;;;;;18.18;63.59;101825.88;5035562;28;20597;-86
2022/10/08 05:29:16;;;;;;;13.13;7.20;;;;;;;18.56;63.80;101912.00;5040167;28;20107;-86
2022/10/08 05:31:43;;;;;;;13.05;7.20;;;;;;;18.49;64.10;101894.09;5036367;28;20116;-87
2022/10/08 05:34:09;;;;;;;11.60;7.00;;;;;;;18.28;63.85;101860.66;5052170;28;20039;-85
2022/10/08 05:36:35;;;;;;;11.63;6.82;;;;;;;18.20;64.05;101866.50;5033788;28;20045;-86
2022/10/08 05:39:03;;;;;;;12.70;7.30;;;;;;;18.52;64.20;101913.66;5021271;28;20041;-86
2022/10/08 05:41:31;;;;;;;12.88;7.22;;;;;;;18.55;64.28;101928.75;5034643;28;20013;-85
2022/10/08 05:43:57;;;;;;;11.48;7.05;;;;;;;18.51;64.59;101922.41;5040235;28;20068;-85
2022/10/08 05:46:24;;;;;;;;;;;;;;;18.55;64.09;101927.84;5054812;28;20062;-83
2022/10/08 05:48:52;;;;;;;10.82;7.20;;;;;;;18.56;64.14;101927.00;5047446;28;20008;-84
2022/10/08 05:51:18;;;;;;;12.20;7.25;;;;;;;18.57;64.19;101929.72;5042964;28;20508;-85
2022/10/08 05:53:46;;;;;;;13.38;7.35;;;;;;;18.30;64.22;101888.06;5030025;28;20021;-85
2022/10/08 05:56:14;;;;;;;13.27;7.10;;;;;;;18.51;64.58;101925.06;5043632;28;20029;-85
2022/10/08 05:58:40;;;;;;;11.23;6.97;;;;;;;18.49;64.03;101902.03;5040459;28;20430;-85
2022/10/08 06:01:15;;;;;;;11.05;7.38;;;;;;;18.62;63.70;101922.84;5037946;28;20037;-84
2022/10/08 06:03:41;;;;;;;14.98;7.80;;;;;;;18.26;64.09;101858.81;5053780;28;20498;-84
2022/10/08 06:06:07;;;;;;;;;;;;;;;18.66;64.00;101916.84;5039967;28;20645;-85
2022/10/08 06:08:34;;;;;;;39.75;9.40;;;;;;;18.56;64.00;101903.19;5032658;28;20391;-84
2022/10/08 06:11:00;;;;;;;13.38;8.05;;;;;;;18.54;63.87;101899.56;5050803;28;20028;-85
2022/10/08 06:13:26;;;;;;;;;;;;;;;18.60;64.21;101907.75;5053259;28;20032;-84
2022/10/08 06:15:56;;;;;;;16.02;7.63;;;;;;;18.53;64.15;101903.97;5046664;28;19913;-85
2022/10/08 06:18:26;;;;;;;15.32;7.80;;;;;;;18.41;64.51;101882.31;5036113;28;20060;-87
2022/10/08 06:20:52;;;;;;;15.73;7.03;;;;;;;18.56;64.04;101912.00;5055961;28;20144;-85
2022/10/08 06:23:18;;;;;;;;;;;;;;;18.56;64.17;101905.81;5039330;28;20021;-85
2022/10/08 06:25:44;;;;;;;10.93;8.02;;;;;;;18.51;64.26;101890.69;5058119;28;19974;-85
2022/10/08 06:28:09;;;;;;;15.25;7.90;;;;;;;18.49;64.25;101900.28;5049296;28;20405;-85
2022/10/08 06:30:35;;;;;;;11.80;7.38;;;;;;;18.54;64.03;101907.50;5034000;28;20021;-85
2022/10/08 06:33:01;;;;;;;13.50;7.70;;;;;;;18.35;64.09;101879.44;5039977;28;20028;-86
2022/10/08 06:35:26;;;;;;;11.00;7.15;;;;;;;18.61;63.95;101928.09;5037926;28;20071;-85
2022/10/08 06:37:52;;;;;;;14.82;7.88;;;;;;;18.52;64.16;101926.88;5038191;28;20405;-86
2022/10/08 06:40:18;;;;;;;11.05;6.97;;;;;;;18.50;64.01;101907.41;5037913;28;20037;-88
2022/10/08 06:42:44;;;;;;;12.02;7.53;;;;;;;18.47;63.79;101904.63;5029691;28;20029;-84
2022/10/08 06:45:10;;;;;;;11.55;7.70;;;;;;;18.56;63.91;101913.75;5033429;28;20037;-84
2022/10/08 06:47:35;;;;;;;14.23;7.82;;;;;;;18.56;63.89;101917.31;5037858;28;20025;-90
2022/10/08 06:50:01;;;;;;;12.98;7.55;;;;;;;18.62;63.89;101937.81;5048517;28;20444;-88
2022/10/08 06:52:27;;;;;;;13.30;7.80;;;;;;;18.59;63.81;101925.38;5032820;28;20739;-89
2022/10/08 06:54:53;;;;;;;13.50;7.55;;;;;;;18.54;63.90;101920.75;5040551;28;20060;-90
2022/10/08 06:57:24;;;;;;;11.25;7.60;;;;;;;18.71;63.60;101935.53;5063206;28;20486;-91
2022/10/08 06:59:53;;;;;;;11.50;7.35;;;;;;;18.65;63.71;101928.28;5055144;28;20427;-90
2022/10/08 07:02:19;;;;;;;12.00;7.57;;;;;;;18.62;63.72;101922.84;5078817;28;20028;-90
2022/10/08 07:04:50;;;;;;;12.43;7.68;;;;;;;18.56;63.92;101917.31;5060135;28;20028;-91
2022/10/08 07:07:20;;;;;;;11.10;6.80;;;;;;;18.43;64.09;101907.97;5051051;28;20517;-93
2022/10/08 07:09:45;;;;;;;9.68;7.10;;;;;;;18.67;63.66;101929.22;5036187;28;20056;-88
2022/10/08 07:12:12;;;;;;;11.70;7.20;;;;;;;18.54;63.84;101910.16;5051624;28;20122;-87
2022/10/08 07:14:38;;;;;;;11.38;7.38;;;;;;;18.58;63.83;101934.13;5039830;28;20041;-87
2022/10/08 07:17:03;;;;;;;10.88;7.18;;;;;;;18.61;63.86;101922.81;5037569;28;20037;-87
2022/10/08 07:19:29;;;;;;;11.73;7.63;;;;;;;18.62;63.85;101927.25;5039831;28;20021;-86
2022/10/08 07:21:54;;;;;;;12.45;7.20;;;;;;;18.58;63.87;101933.25;5036593;28;20636;-86
2022/10/08 07:24:20;;;;;;;11.65;7.70;;;;;;;18.59;64.03;101930.66;5042524;28;20032;-86
2022/10/08 07:26:46;;;;;;;13.48;7.78;;;;;;;18.62;63.77;101914.00;5037102;28;20029;-88
2022/10/08 07:29:14;;;;;;;10.85;7.20;;;;;;;18.66;63.61;101915.94;5047811;28;20029;-88
2022/10/08 07:31:39;;;;;;;10.35;7.03;;;;;;;18.65;63.59;101912.41;5049007;28;20018;-87
2022/10/08 07:34:08;;;;;;;9.35;6.80;;;;;;;18.62;64.00;101917.56;5051393;28;20137;-89
2022/10/08 07:36:35;;;;;;;11.55;7.18;;;;;;;18.50;63.80;101893.28;5045728;28;20047;-88
2022/10/08 07:39:09;;;;;;;10.80;7.00;;;;;;;18.64;63.66;101918.50;5044012;28;20118;-89
2022/10/08 07:41:35;;;;;;;10.85;6.70;;;;;;;18.35;63.57;101871.50;5060076;28;20021;-89
2022/10/08 07:44:03;;;;;;;10.25;6.85;;;;;;;18.60;63.88;101913.94;5040950;28;20027;-88
2022/10/08 07:46:30;;;;;;;9.07;6.18;;;;;;;18.59;63.71;101917.44;5042674;28;20025;-88
2022/10/08 07:49:03;;;;;;;8.80;6.75;;;;;;;18.51;63.78;101887.13;5041197;28;20044;-92
2022/10/08 07:51:32;;;;;;;11.50;7.10;;;;;;;18.60;64.14;101903.34;5041029;28;20663;-91
2022/10/08 07:54:03;;;;;;;12.55;6.88;;;;;;;18.38;64.69;101887.50;5053115;28;20033;-91
2022/10/08 07:56:32;;;;;;;13.02;6.90;;;;;;;18.55;64.02;101915.50;5023881;28;20031;-90
2022/10/08 07:58:58;;;;;;;10.57;6.95;;;;;;;18.65;63.80;101908.84;5053999;28;20021;-88
2022/10/08 08:01:28;;;;;;;12.27;7.00;;;;;;;18.60;63.75;101900.72;5041678;28;20084;-90
2022/10/08 08:03:56;;;;;;;8.25;6.20;;;;;;;18.64;63.96;101907.03;5033639;28;20063;-91
2022/10/08 08:06:23;;;;;;;10.07;6.40;;;;;;;18.51;64.27;101917.13;5051625;28;20022;-83
2022/10/08 08:08:49;;;;;;;10.05;6.57;;;;;;;18.49;63.97;101896.75;5044653;28;20033;-83
2022/10/08 08:11:17;;;;;;;10.32;6.90;;;;;;;18.42;63.83;101870.91;5035290;28;20032;-83
2022/10/08 08:13:43;;;;;;;9.10;6.78;;;;;;;18.45;64.12;101894.81;5037255;28;20025;-83
2022/10/08 08:16:20;;;;;;;14.57;7.07;;;;;;;18.60;63.85;101910.41;5044579;28;20044;-83
2022/10/08 08:18:48;;;;;;;10.32;6.60;;;;;;;18.52;64.04;101910.13;5048620;28;20076;-83
2022/10/08 08:21:34;;;;;;;8.27;6.80;;;;;;;18.41;64.00;101874.38;5040142;28;20021;-82
2022/10/08 08:24:11;;;;;;;11.97;6.57;;;;;;;18.32;64.39;101869.63;5040946;28;20036;-83
2022/10/08 08:26:41;;;;;;;11.13;6.63;;;;;;;18.42;64.15;101881.50;5037370;28;20112;-82
2022/10/08 08:29:10;;;;;;;8.52;6.30;;;;;;;18.44;64.12;101896.56;5043613;28;20053;-83
2022/10/08 08:31:38;;;;;;;12.65;6.32;;;;;;;18.23;63.98;101849.00;5049909;28;20036;-83
2022/10/08 08:34:07;;;;;;;9.70;6.40;;;;;;;18.44;64.13;101890.41;5030388;28;20501;-84
2022/10/08 08:36:36;;;;;;;11.50;6.57;;;;;;;18.33;63.69;101866.16;5041836;28;20546;-81
2022/10/08 08:39:02;;;;;;;13.73;6.53;;;;;;;18.40;63.32;101878.78;5043855;28;20112;-82
2022/10/08 08:41:37;;;;;;;12.40;7.05;;;;;;;18.41;63.47;101887.59;5036342;28;20072;-82
2022/10/08 08:44:09;;;;;;;12.95;6.85;;;;;;;18.35;63.51;101879.44;5042571;28;20098;-81
2022/10/08 08:46:39;;;;;;;9.50;6.43;;;;;;;18.27;63.72;101864.16;5040105;28;20083;-83
2022/10/08 08:49:32;;;;;;;8.10;5.80;;;;;;;18.38;63.80;101891.03;5037415;28;20562;-84
2022/10/08 08:52:00;;;;;;;11.80;6.32;;;;;;;18.23;63.65;101848.13;5033679;28;20025;-82
2022/10/08 08:54:26;;;;;;;11.63;6.20;;;;;;;18.24;63.54;101848.16;5048267;28;20029;-81
2022/10/08 08:56:52;;;;;;;10.48;6.40;;;;;;;18.41;63.97;101874.38;5044376;28;20091;-81
2022/10/08 08:59:20;;;;;;;;;;;;;;;18.38;64.00;101869.88;5046008;28;20124;-82
2022/10/08 09:01:47;;;;;;;12.07;6.47;;;;;;;18.29;64.18;101853.66;5051596;28;19920;-82
2022/10/08 09:04:38;;;;;;;9.00;6.20;;;;;;;18.43;63.89;101870.94;5051357;28;20017;-82
2022/10/08 09:07:07;;;;;;;9.68;6.15;;;;;;;18.29;64.08;101845.72;5039757;28;20090;-82
2022/10/08 09:09:53;;;;;;;9.35;6.28;;;;;;;18.41;63.99;101861.16;5047034;28;20037;-83
2022/10/08 09:12:22;;;;;;;8.80;6.38;;;;;;;18.46;63.98;101867.56;5054218;28;20028;-82
2022/10/08 09:14:53;;;;;;;8.98;6.32;;;;;;;18.45;63.99;101856.03;5048846;28;20483;-82
2022/10/08 09:17:28;;;;;;;9.20;6.43;;;;;;;18.40;63.89;101857.63;5044444;28;20021;-82
2022/10/08 09:19:53;;;;;;;8.80;6.70;;;;;;;18.42;63.81;101857.69;5040498;28;20045;-82
2022/10/08 09:22:25;;;;;;;11.93;6.53;;;;;;;18.42;64.32;101853.28;5051286;28;20020;-82
2022/10/08 09:25:15;;;;;;;9.60;6.80;;;;;;;18.45;64.47;101852.50;5045304;28;20065;-82
2022/10/08 09:27:41;;;;;;;10.43;6.30;;;;;;;18.31;64.19;101828.19;5040712;28;20029;-83
2022/10/08 09:30:41;;;;;;;14.50;6.38;;;;;;;18.51;64.13;101847.47;5052069;28;20421;-83
2022/10/08 09:33:13;;;;;;;8.98;6.38;;;;;;;18.47;64.04;101848.19;5038179;28;20051;-82
2022/10/08 09:35:47;;;;;;;9.90;6.20;;;;;;;18.41;64.05;101840.88;5043242;28;20041;-80
2022/10/08 09:38:37;;;;;;;9.60;5.97;;;;;;;18.48;64.00;101840.31;5055638;28;20470;-81
2022/10/08 09:41:11;;;;;;;9.60;6.47;;;;;;;18.51;63.91;101842.16;5052332;28;20033;-81
2022/10/08 09:43:37;;;;;;;10.23;6.60;;;;;;;18.51;63.80;101835.13;5044059;28;20056;-81
2022/10/08 09:46:10;;;;;;;7.80;6.18;;;;;;;18.50;63.88;101817.47;5041156;28;20055;-82
2022/10/08 09:48:36;;;;;;;9.27;6.40;;;;;;;18.49;63.75;101834.16;5057848;28;20056;-82
2022/10/08 09:51:12;;;;;;;9.43;6.70;;;;;;;18.48;63.90;101829.72;5057892;28;20040;-81
2022/10/08 09:53:42;;;;;;;7.30;5.72;;;;;;;18.43;63.39;101801.28;5050475;28;20601;-81
2022/10/08 09:56:09;;;;;;;11.13;6.22;;;;;;;18.46;63.79;101812.91;5047421;28;20406;-83
2022/10/08 09:58:46;;;;;;;8.57;5.60;;;;;;;18.52;63.36;101818.44;5054960;28;20388;-82
2022/10/08 10:01:14;;;;;;;11.27;5.63;;;;;;;18.49;63.50;101801.53;5038478;28;20484;-81
2022/10/08 10:03:49;;;;;;;11.98;6.05;;;;;;;18.41;63.52;101776.53;5049692;28;20744;-82
2022/10/08 10:06:15;;;;;;;8.80;5.32;;;;;;;18.54;63.77;101799.06;5049020;28;20493;-82
2022/10/08 10:08:53;;;;;;;9.35;5.47;;;;;;;18.57;63.66;101808.00;5063085;28;20062;-81
2022/10/08 10:11:25;;;;;;;8.93;5.57;;;;;;;18.49;63.89;101794.47;5052358;28;20056;-81
2022/10/08 10:13:50;;;;;;;8.07;5.78;;;;;;;18.56;63.83;101787.69;5041194;28;20025;-82
2022/10/08 10:16:21;;;;;;;9.75;5.75;;;;;;;18.59;63.98;101792.22;5042443;28;20033;-81
2022/10/08 10:18:47;;;;;;;7.63;6.00;;;;;;;18.59;64.14;101798.41;5048727;28;20402;-81
2022/10/08 10:21:15;;;;;;;9.48;5.82;;;;;;;18.35;63.81;101752.47;5036280;28;20083;-80
2022/10/08 10:23:45;;;;;;;7.55;5.60;;;;;;;18.62;63.69;101787.91;5035053;28;20032;-82
2022/10/08 10:26:16;;;;;;;8.38;5.60;;;;;;;18.62;63.67;101777.31;5048331;28;20033;-82
2022/10/08 10:28:45;;;;;;;7.60;5.88;;;;;;;18.66;63.55;101786.28;5034384;28;20483;-81
2022/10/08 10:31:36;;;;;;;11.15;5.32;;;;;;;18.64;63.49;101777.41;5048877;28;20384;-82
2022/10/08 10:34:14;;;;;;;8.13;5.63;;;;;;;18.67;63.48;101769.59;5012877;28;20065;-82
2022/10/08 10:36:55;;;;;;;6.22;5.43;;;;;;;18.70;63.51;101767.94;5040952;28;20052;-82
2022/10/08 10:39:56;;;;;;;6.97;5.10;;;;;;;18.70;63.45;101775.88;5044007;28;20049;-82
2022/10/08 10:42:54;;;;;;;8.00;5.68;;;;;;;18.81;63.33;101757.78;4999360;28;20041;-83
2022/10/08 10:45:24;;;;;;;8.02;5.32;;;;;;;18.74;63.40;101755.72;5036704;28;20119;-83
2022/10/08 10:47:50;;;;;;;8.82;5.18;;;;;;;18.70;63.66;101756.44;5026294;28;20602;-83
2022/10/08 10:50:24;;;;;;;7.63;5.40;;;;;;;18.71;63.40;101758.25;5046167;28;20119;-83
2022/10/08 10:52:52;;;;;;;5.97;4.80;;;;;;;18.69;63.73;101759.97;5047601;28;20029;-83
2022/10/08 10:55:29;;;;;;;7.88;5.40;;;;;;;18.68;63.87;101759.03;5046503;28;20036;-84
2022/10/08 10:58:32;;;;;;;9.95;5.85;;;;;;;18.74;63.57;101746.88;5043642;28;20040;-83
2022/10/08 11:00:57;;;;;;;8.63;5.50;;;;;;;18.75;63.48;101744.28;5047985;28;20033;-83
2022/10/08 11:03:48;;;;;;;9.55;5.40;;;;;;;18.69;63.48;101733.50;5050290;28;20074;-83
2022/10/08 11:06:48;;;;;;;8.00;5.10;;;;;;;18.75;63.48;101733.69;5052541;28;20029;-83
2022/10/08 11:09:28;;;;;;;8.20;5.55;;;;;;;18.61;63.12;101709.41;5068987;28;20068;-82
2022/10/08 11:12:17;;;;;;;9.50;5.90;;;;;;;18.76;63.49;101732.88;5050373;28;20037;-82
2022/10/08 11:15:07;;;;;;;6.57;4.97;;;;;;;18.77;63.49;101725.81;5042110;28;20033;-82
2022/10/08 11:17:39;;;;;;;8.25;5.03;;;;;;;18.79;63.69;101726.81;5047588;28;20044;-82
2022/10/08 11:20:38;;;;;;;7.97;5.20;;;;;;;18.78;63.73;101717.97;5054641;28;20066;-82
2022/10/08 11:23:15;;;;;;;7.55;5.35;;;;;;;18.81;63.43;101717.19;5046625;28;20037;-83
2022/10/08 11:26:00;;;;;;;6.75;5.53;;;;;;;18.76;63.63;101714.34;5049255;28;20032;-83
2022/10/08 11:28:36;;;;;;;6.43;5.20;;;;;;;18.78;63.59;101710.03;5056347;28;20474;-82
2022/10/08 11:31:20;;;;;;;7.13;5.00;;;;;;;18.85;63.54;101700.56;5044217;28;20041;-83
2022/10/08 11:33:47;;;;;;;7.97;5.40;;;;;;;18.61;63.38;101653.84;5045516;28;20029;-83
2022/10/08 11:36:20;;;;;;;8.57;5.03;;;;;;;18.87;63.45;101691.81;5034685;28;20100;-83
2022/10/08 11:38:46;;;;;;;7.95;5.53;;;;;;;18.88;63.17;101692.72;5036463;28;20038;-83
2022/10/08 11:41:11;;;;;;;7.93;5.32;;;;;;;18.77;62.94;101641.13;5039214;28;20032;-83